Terminal Aerodrome Forecast
Issued by NWS

Home | Current Version | Previous Version | Text Only | Print | Product List | Glossary On
Versions: 1 2 3 4 5 6 7 8 9 10 11 12 13 14 15 16 17
000
FTUS41 KCAR 262335
TAFHUL
TAF
KHUL 262335Z 2700/2724 27008KT P6SM SKC
     FM270400 28006KT P6SM SCT040
     FM271500 30008G15KT P6SM FEW045 BKN200=

USA.gov is the U.S. government's official web portal to all federal, state and local government web resources and services.